LFBP/PUF METAR and TAF weather

Enter ICAO airport designator
Station Type Date Time Source
LFBP METAR 2019/09/21 04:30 UTC NOAA

LFBP 210430Z AUTO 05003KT 9000 NSC 18/17 Q1011 TEMPO BKN060TCU


Station Type Date Time Source
LFBP Decoded METAR 2019/09/21 04:30 UTC NOAA

Pau, France (LFBP) 43-23N 000-25W 185M
Sep 21, 2019 - 12:30 AM EDT / 2019.09.21 0430 UTC
Wind: from the NE (050 degrees) at 3 MPH (3 KT):0
Visibility: 5 mile(s):0
Weather: Towering cumulus clouds observed
Temperature: 64 F (18 C)
Dew Point: 62 F (17 C)
Relative Humidity: 93%
Pressure (altimeter): 29.85 in. Hg (1011 hPa)
ob: LFBP 210430Z AUTO 05003KT 9000 NSC 18/17 Q1011 TEMPO BKN060TCU
cycle: 4

Station Type Date Time Source
LFBP TAF 2019/09/21 02:24 UTC NOAA

TAF
AMD TAF
AMD LFBP 210221Z 2102/2124 VRB03KT CAVOK
TEMPO 2102/2109 -SHRA BKN060TCU

Example: see airport list